Galmey, Missouri
Current Conditions -  °F | °C
As of 3:55 AM on Sunday 21 Dec 2014 (Local Time) from KGLY Reporting Station
Overcast Overcast  
Wind Chill: 39°   Ceiling: 2100
Heat Index: 43°   Visibility: 9mi
Dew Point: 36°   Wind: 7mph
Humidity: 76%   Direction: 180°S
Pressure: 30.13"   Gusts: NA
Location:  37.9327°N, 93.406°W
Report Text: KGLY 210955Z AUTO 18006KT 9SM OVC021 06/02 A3013 RMK AO2
Loading
Personal Weather Stations






























Interactive Weather Map New forecast layout! Learn more

10-Day Weather Forecast

Advertisements
Track Severe Weather on mobile